Time;durP1;ratioP1;P1;durP2;ratioP2;P2;SDS_P1;SDS_P2;PMS_P1;PMS_P2;Temp;Humidity;BMP_temperature;BMP_pressure;BME280_temperature;BME280_humidity;BME280_pressure;Samples;Min_cycle;Max_cycle;Signal;HPM_P1;HPM_P2
2022/09/24 00:01:21;;;;;;;3.53;1.73;;;;;;;12.13;87.75;95218.00;4399931;32;20207;-64
2022/09/24 00:03:58;;;;;;;1.40;1.30;;;;;;;12.21;87.43;95220.72;4385796;32;20184;-65
2022/09/24 00:06:26;;;;;;;1.93;1.70;;;;;;;12.11;87.73;95218.31;4403950;32;20188;-65
2022/09/24 00:08:57;;;;;;;2.10;1.70;;;;;;;12.16;87.26;95220.84;4355259;32;20196;-65
2022/09/24 00:11:27;;;;;;;1.17;1.17;;;;;;;12.14;87.60;95220.38;4360530;32;20260;-66
2022/09/24 00:13:56;;;;;;;1.63;1.57;;;;;;;12.05;88.04;95207.00;4393909;32;20200;-65
2022/09/24 00:16:24;;;;;;;1.47;1.37;;;;;;;12.07;87.99;95205.94;4382216;32;20181;-65
2022/09/24 00:18:50;;;;;;;1.10;1.10;;;;;;;12.10;88.00;95203.44;4388890;32;20235;-65
2022/09/24 00:21:18;;;;;;;1.43;1.43;;;;;;;12.15;87.93;95205.19;4390084;32;20180;-66
2022/09/24 00:23:54;;;;;;;1.03;1.03;;;;;;;12.10;87.87;95198.13;4405808;32;20202;-65
2022/09/24 00:29:05;;;;;;;2.13;2.00;;;;;;;11.99;88.47;95210.12;4393952;32;20216;-66
2022/09/24 00:31:31;;;;;;;0.80;0.80;;;;;;;12.07;88.32;95204.06;4392637;32;20196;-65
2022/09/24 00:33:57;;;;;;;1.30;1.20;;;;;;;12.14;87.70;95207.06;4391695;32;20271;-65
2022/09/24 00:36:23;;;;;;;1.07;1.07;;;;;;;11.86;88.99;95208.31;4399866;32;20212;-65
2022/09/24 00:38:50;;;;;;;1.00;1.00;;;;;;;12.00;88.80;95203.72;4390254;32;20216;-65
2022/09/24 00:41:18;;;;;;;3.30;1.53;;;;;;;12.06;88.56;95199.81;4404335;32;20187;-65
2022/09/24 00:43:45;;;;;;;1.20;1.17;;;;;;;12.26;87.57;95191.31;4409604;32;20199;-65
2022/09/24 00:46:28;;;;;;;1.10;1.10;;;;;;;12.12;88.05;95195.16;4395279;32;20240;-65
2022/09/24 00:49:04;;;;;;;1.47;1.37;;;;;;;12.15;88.40;95197.22;4384988;32;20188;-65
2022/09/24 00:51:32;;;;;;;1.30;1.27;;;;;;;12.13;88.40;95186.88;4401680;32;20191;-65
2022/09/24 00:54:05;;;;;;;2.80;2.07;;;;;;;12.23;87.72;95183.97;4396875;32;20211;-65
2022/09/24 00:56:35;;;;;;;0.80;0.80;;;;;;;12.24;87.87;95182.09;4399980;32;20276;-65
2022/09/24 00:59:02;;;;;;;1.20;1.20;;;;;;;12.25;87.83;95181.78;4398507;32;20243;-65
2022/09/24 01:01:28;;;;;;;1.43;1.33;;;;;;;12.25;87.95;95181.78;4398736;32;20196;-65
2022/09/24 01:03:55;;;;;;;0.87;0.87;;;;;;;12.31;87.42;95177.88;4393664;32;20192;-65
2022/09/24 01:06:21;;;;;;;0.73;0.73;;;;;;;12.27;87.41;95181.47;4385199;32;20231;-65
2022/09/24 01:08:46;;;;;;;0.80;0.80;;;;;;;12.09;88.35;95177.16;4396941;32;20297;-65
2022/09/24 01:11:25;;;;;;;0.87;0.87;;;;;;;12.18;88.20;95173.47;4402556;32;20191;-65
2022/09/24 01:14:00;;;;;;;1.00;1.00;;;;;;;12.14;88.53;95177.03;4392691;32;20302;-65
2022/09/24 01:16:45;;;;;;;0.97;0.97;;;;;;;12.20;88.39;95171.28;4388455;32;20195;-65
2022/09/24 01:19:58;;;;;;;0.90;0.90;;;;;;;12.10;88.75;95160.13;4393095;32;20222;-65
2022/09/24 01:22:53;;;;;;;0.80;0.80;;;;;;;12.24;88.39;95161.59;4389019;32;20180;-65
2022/09/24 01:25:58;;;;;;;1.60;1.50;;;;;;;12.11;88.44;95159.03;4392436;32;20208;-65
2022/09/24 01:28:56;;;;;;;0.63;0.63;;;;;;;12.03;88.99;95164.03;4387279;32;20181;-64
2022/09/24 01:31:45;;;;;;;1.53;1.30;;;;;;;12.18;88.34;95154.06;4347944;32;20258;-65
2022/09/24 01:34:16;;;;;;;1.53;1.43;;;;;;;12.02;88.95;95148.38;4409115;32;20194;-65
2022/09/24 01:36:43;;;;;;;0.87;0.87;;;;;;;12.13;88.66;95139.03;4381623;32;20195;-65
2022/09/24 01:39:09;;;;;;;2.17;1.07;;;;;;;12.09;88.59;95148.69;4402479;32;20267;-64
2022/09/24 01:41:38;;;;;;;0.90;0.90;;;;;;;12.07;88.66;95144.75;4387402;32;20208;-64
2022/09/24 01:44:06;;;;;;;1.00;1.00;;;;;;;12.19;87.88;95140.47;4397327;32;20217;-64
2022/09/24 01:46:32;;;;;;;0.90;0.90;;;;;;;12.20;87.86;95141.25;4405646;32;20248;-65
2022/09/24 01:48:58;;;;;;;0.90;0.90;;;;;;;12.22;87.76;95134.53;4402246;32;20196;-65
2022/09/24 01:51:28;;;;;;;1.80;0.97;;;;;;;12.19;88.01;95142.34;4403621;32;20188;-65
2022/09/24 01:54:00;;;;;;;1.20;1.20;;;;;;;12.27;87.76;95137.03;4412253;32;20236;-65
2022/09/24 01:56:37;;;;;;;1.50;1.07;;;;;;;12.34;87.28;95128.59;4391676;32;20184;-65
2022/09/24 01:59:17;;;;;;;1.10;1.00;;;;;;;12.06;88.21;95122.72;4393610;32;20347;-64
2022/09/24 02:01:56;;;;;;;0.70;0.70;;;;;;;12.05;88.64;95121.16;4394384;32;20184;-65
2022/09/24 02:04:24;;;;;;;1.03;1.00;;;;;;;12.15;88.88;95117.44;4387384;32;20254;-65
2022/09/24 02:06:52;;;;;;;0.37;0.37;;;;;;;12.10;88.75;95117.56;4393934;32;20192;-65
2022/09/24 02:09:35;;;;;;;1.37;1.27;;;;;;;12.21;88.48;95117.00;4391136;32;20200;-64
2022/09/24 02:12:14;;;;;;;0.83;0.83;;;;;;;12.13;88.82;95120.41;4393568;32;20247;-65
2022/09/24 02:14:44;;;;;;;0.57;0.57;;;;;;;12.22;88.34;95115.91;4391562;32;20202;-65
2022/09/24 02:17:13;;;;;;;7.57;1.40;;;;;;;12.32;87.97;95114.81;4398924;32;20206;-65
2022/09/24 02:19:40;;;;;;;0.27;0.27;;;;;;;12.24;88.04;95116.37;4416754;32;20196;-64
2022/09/24 02:22:08;;;;;;;0.73;0.73;;;;;;;12.33;87.74;95105.75;4395877;32;20229;-65
2022/09/24 02:24:46;;;;;;;0.97;0.97;;;;;;;12.11;88.48;95103.97;4416275;32;20187;-65
2022/09/24 02:27:12;;;;;;;0.63;0.63;;;;;;;12.17;88.69;95102.75;4387208;32;20203;-65
2022/09/24 02:29:37;;;;;;;4.00;0.93;;;;;;;12.29;88.11;95096.81;4390121;32;20216;-65
2022/09/24 02:32:07;;;;;;;0.97;0.90;;;;;;;12.22;88.26;95091.97;4388526;32;20193;-65
2022/09/24 02:34:37;;;;;;;0.90;0.90;;;;;;;12.09;88.71;95100.81;4394299;32;20278;-65
2022/09/24 02:37:13;;;;;;;0.50;0.50;;;;;;;12.21;88.84;95095.72;4392675;32;20271;-65
2022/09/24 02:39:39;;;;;;;0.80;0.80;;;;;;;12.24;88.73;95102.31;4389981;32;20211;-65
2022/09/24 02:42:06;;;;;;;1.20;1.10;;;;;;;12.30;88.29;95099.19;4396913;32;20252;-64
2022/09/24 02:44:33;;;;;;;0.80;0.80;;;;;;;12.38;87.79;95087.00;4409926;32;20287;-64
2022/09/24 02:46:58;;;;;;;0.80;0.80;;;;;;;12.34;87.97;95086.84;4398452;32;20227;-65
2022/09/24 02:49:24;;;;;;;0.90;0.90;;;;;;;12.39;87.88;95089.34;4411780;32;20188;-64
2022/09/24 02:51:49;;;;;;;1.57;1.47;;;;;;;12.43;87.73;95086.84;4396485;32;20211;-64
2022/09/24 02:54:15;;;;;;;1.03;1.03;;;;;;;12.34;87.79;95086.84;4398145;32;20184;-65
2022/09/24 02:56:40;;;;;;;0.23;0.23;;;;;;;12.31;87.94;95087.44;4397760;32;20214;-65
2022/09/24 02:59:06;;;;;;;1.10;0.77;;;;;;;12.33;88.05;95082.59;4391857;32;20211;-65
2022/09/24 03:01:34;;;;;;;1.40;1.40;;;;;;;12.33;88.24;95087.91;4393792;32;20202;-64
2022/09/24 03:04:00;;;;;;;0.67;0.67;;;;;;;12.30;88.35;95085.09;4393714;32;20206;-64
2022/09/24 03:06:26;;;;;;;0.60;0.60;;;;;;;12.29;88.37;95084.31;4386928;32;20181;-64
2022/09/24 03:08:52;;;;;;;0.93;0.93;;;;;;;12.36;87.94;95081.97;4397403;32;20185;-64
2022/09/24 03:11:19;;;;;;;1.00;1.00;;;;;;;12.35;87.82;95084.94;4399302;32;20227;-65
2022/09/24 03:13:44;;;;;;;0.90;0.90;;;;;;;12.38;88.00;95087.78;4395642;32;20247;-64
2022/09/24 03:16:10;;;;;;;0.90;0.90;;;;;;;12.34;88.11;95081.50;4409628;32;20184;-64
2022/09/24 03:18:36;;;;;;;0.80;0.80;;;;;;;12.36;88.02;95087.31;4393889;32;20196;-64
2022/09/24 03:21:07;;;;;;;1.20;1.20;;;;;;;12.20;88.75;95080.84;4395320;32;20180;-64
2022/09/24 03:23:34;;;;;;;0.67;0.67;;;;;;;12.27;88.72;95086.50;4400963;32;20293;-64
2022/09/24 03:25:59;;;;;;;0.97;0.93;;;;;;;12.34;88.51;95086.84;4397086;32;20238;-64
2022/09/24 03:28:25;;;;;;;1.47;1.43;;;;;;;12.39;88.33;95092.00;4395302;32;20181;-64
2022/09/24 03:31:00;;;;;;;1.77;1.67;;;;;;;12.30;89.00;95087.75;4397874;32;20331;-64
2022/09/24 03:33:25;;;;;;;0.93;0.93;;;;;;;12.19;89.33;95089.94;4397797;32;20184;-65
2022/09/24 03:36:18;;;;;;;1.00;1.00;;;;;;;12.27;89.26;95094.47;4397246;32;20273;-64
2022/09/24 03:38:45;;;;;;;0.70;0.70;;;;;;;12.34;88.74;95089.50;4394028;32;20206;-65
2022/09/24 03:41:12;;;;;;;0.73;0.73;;;;;;;12.46;88.24;95088.12;4394620;32;20237;-64
2022/09/24 03:43:37;;;;;;;0.47;0.47;;;;;;;12.34;88.40;95086.84;4397059;32;20203;-64
2022/09/24 03:46:07;;;;;;;1.40;1.40;;;;;;;12.35;88.63;95076.97;4402279;32;20249;-64
2022/09/24 03:48:34;;;;;;;2.43;0.83;;;;;;;12.44;88.38;95085.75;4396485;32;20267;-64
2022/09/24 03:51:08;;;;;;;0.83;0.83;;;;;;;12.49;87.99;95074.16;4393428;32;20249;-65
2022/09/24 03:53:34;;;;;;;0.93;0.93;;;;;;;12.53;87.75;95086.56;4403240;32;20217;-64
2022/09/24 03:56:01;;;;;;;0.93;0.93;;;;;;;12.55;87.52;95081.69;4392879;32;20189;-64
2022/09/24 03:58:27;;;;;;;0.60;0.60;;;;;;;12.41;88.68;95083.72;4400028;32;20214;-64
2022/09/24 04:00:53;;;;;;;1.00;1.00;;;;;;;12.41;89.10;95069.63;4405656;32;20198;-64
2022/09/24 04:03:23;;;;;;;1.00;1.00;;;;;;;12.47;88.94;95071.81;4393830;32;20259;-64
2022/09/24 04:05:52;;;;;;;0.73;0.73;;;;;;;12.47;88.87;95071.06;4398197;32;20217;-64
2022/09/24 04:08:21;;;;;;;0.50;0.50;;;;;;;12.54;88.39;95068.72;4393370;32;20203;-64
2022/09/24 04:10:47;;;;;;;1.63;0.80;;;;;;;12.55;88.15;95059.63;4393524;32;20188;-64
2022/09/24 04:13:14;;;;;;;1.40;0.70;;;;;;;12.60;88.19;95056.81;4399167;32;20262;-65
2022/09/24 04:15:39;;;;;;;0.60;0.60;;;;;;;12.60;87.99;95060.28;4398027;32;20204;-64
2022/09/24 04:18:04;;;;;;;1.07;1.07;;;;;;;12.56;87.93;95055.88;4399278;32;20197;-64
2022/09/24 04:20:31;;;;;;;0.63;0.63;;;;;;;12.60;87.81;95054.94;4407913;32;20235;-64
2022/09/24 04:22:58;;;;;;;0.70;0.70;;;;;;;12.58;88.09;95054.47;4395554;32;20179;-64
2022/09/24 04:25:25;;;;;;;1.00;1.00;;;;;;;12.64;88.17;95047.13;4405143;32;20177;-64
2022/09/24 04:27:55;;;;;;;0.70;0.70;;;;;;;12.59;88.32;95044.63;4397950;32;20234;-64
2022/09/24 04:30:22;;;;;;;1.80;1.27;;;;;;;12.65;88.01;95043.38;4392590;32;20273;-64
2022/09/24 04:32:50;;;;;;;1.23;1.23;;;;;;;12.61;88.44;95042.44;4391034;32;20194;-63
2022/09/24 04:35:16;;;;;;;0.77;0.77;;;;;;;12.68;87.92;95042.72;4394295;32;20184;-64
2022/09/24 04:37:42;;;;;;;1.00;1.00;;;;;;;12.59;88.16;95052.59;4401268;32;20200;-64
2022/09/24 04:40:11;;;;;;;1.00;1.00;;;;;;;12.63;88.50;95050.88;4397627;32;20196;-64
2022/09/24 04:42:39;;;;;;;0.80;0.80;;;;;;;12.66;88.61;95045.72;4387783;32;20198;-64
2022/09/24 04:45:09;;;;;;;0.77;0.77;;;;;;;12.73;88.21;95045.25;4427209;32;20184;-64
2022/09/24 04:47:36;;;;;;;1.17;1.17;;;;;;;12.71;87.88;95052.75;4394640;32;20294;-64
2022/09/24 04:50:02;;;;;;;1.10;1.07;;;;;;;12.62;88.45;95046.66;4395098;32;20247;-64
2022/09/24 04:52:32;;;;;;;0.80;0.80;;;;;;;12.76;88.08;95046.50;4388989;32;20206;-64
2022/09/24 04:55:00;;;;;;;0.87;0.87;;;;;;;12.68;88.06;95048.03;4412164;32;20229;-64
2022/09/24 04:57:27;;;;;;;0.60;0.60;;;;;;;12.72;88.29;95049.00;4389845;32;20193;-64
2022/09/24 04:59:52;;;;;;;0.87;0.87;;;;;;;12.72;88.32;95043.66;4404184;32;20199;-64
2022/09/24 05:02:20;;;;;;;0.70;0.70;;;;;;;12.75;88.17;95045.72;4399917;32;20240;-65
2022/09/24 05:04:46;;;;;;;0.80;0.80;;;;;;;12.71;88.38;95042.09;4402164;32;20192;-64
2022/09/24 05:07:12;;;;;;;0.83;0.83;;;;;;;12.75;88.21;95037.72;4391724;32;20214;-64
2022/09/24 05:09:39;;;;;;;0.67;0.67;;;;;;;12.81;87.76;95031.16;4398712;32;20235;-63
2022/09/24 05:12:12;;;;;;;0.87;0.87;;;;;;;12.93;87.37;95035.84;4371681;32;20234;-64
2022/09/24 05:14:38;;;;;;;0.70;0.70;;;;;;;12.88;87.35;95034.13;4395942;32;20196;-63
2022/09/24 05:17:05;;;;;;;0.77;0.77;;;;;;;12.95;87.29;95034.41;4364661;32;20219;-64
2022/09/24 05:19:32;;;;;;;1.20;1.17;;;;;;;12.88;87.74;95036.78;4362453;32;20303;-64
2022/09/24 05:21:58;;;;;;;0.80;0.80;;;;;;;12.85;87.94;95041.97;4398623;32;20238;-64
2022/09/24 05:24:25;;;;;;;2.57;0.93;;;;;;;12.91;88.29;95038.03;4389130;32;20241;-63
2022/09/24 05:29:39;;;;;;;0.70;0.70;;;;;;;12.91;88.20;95038.03;4356643;32;20303;-63
2022/09/24 05:32:13;;;;;;;0.57;0.57;;;;;;;12.88;88.00;95041.34;4386151;32;20188;-63
2022/09/24 05:34:46;;;;;;;1.00;1.00;;;;;;;12.92;87.81;95036.94;4363079;32;20180;-64
2022/09/24 05:37:35;;;;;;;0.93;0.93;;;;;;;12.97;86.97;95037.56;4360937;32;20193;-64
2022/09/24 05:43:01;;;;;;;1.07;1.07;;;;;;;13.08;87.78;95046.03;4371044;32;20257;-64
2022/09/24 05:45:28;;;;;;;1.00;1.00;;;;;;;13.11;87.19;95036.59;4385866;32;20201;-63
2022/09/24 05:47:55;;;;;;;0.83;0.83;;;;;;;13.17;86.69;95043.34;4364519;32;20192;-63
2022/09/24 05:50:21;;;;;;;0.90;0.90;;;;;;;13.16;86.50;95044.44;4391737;32;20250;-63
2022/09/24 05:52:47;;;;;;;0.73;0.73;;;;;;;13.06;87.42;95037.56;4365964;32;20188;-64
2022/09/24 05:55:15;;;;;;;0.53;0.53;;;;;;;13.28;86.38;95040.06;4373392;32;20195;-66
2022/09/24 05:57:43;;;;;;;1.00;1.00;;;;;;;13.26;85.96;95041.47;4368400;32;20185;-63
2022/09/24 06:00:08;;;;;;;0.77;0.77;;;;;;;13.32;86.40;95046.28;4378317;32;20255;-63
2022/09/24 06:02:36;;;;;;;1.17;1.17;;;;;;;13.26;86.83;95047.59;4381099;32;20197;-63
2022/09/24 06:05:02;;;;;;;1.07;1.07;;;;;;;13.31;86.72;95043.94;4381935;32;20237;-63
2022/09/24 06:07:27;;;;;;;1.03;0.93;;;;;;;13.52;86.17;95046.72;4366751;32;20208;-63
2022/09/24 06:09:58;;;;;;;0.80;0.80;;;;;;;13.59;85.69;95042.47;4404238;32;20211;-63
2022/09/24 06:12:23;;;;;;;0.70;0.70;;;;;;;13.58;85.49;95048.91;4407854;32;20192;-63
2022/09/24 06:14:52;;;;;;;1.20;1.20;;;;;;;13.60;85.63;95044.03;4393207;32;20184;-62
2022/09/24 06:17:22;;;;;;;1.13;1.13;;;;;;;13.49;85.73;95042.81;4369336;32;20222;-63
2022/09/24 06:19:52;;;;;;;1.07;1.07;;;;;;;13.52;85.97;95039.50;4382265;32;20198;-63
2022/09/24 06:22:20;;;;;;;0.80;0.80;;;;;;;13.64;85.41;95044.19;4371969;32;20176;-62
2022/09/24 06:24:47;;;;;;;0.87;0.87;;;;;;;13.57;85.77;95044.66;4385543;32;20238;-63
2022/09/24 06:27:16;;;;;;;1.50;0.87;;;;;;;13.48;86.27;95038.59;4357879;32;20193;-63
2022/09/24 06:29:42;;;;;;;0.63;0.63;;;;;;;13.64;86.21;95047.63;4393676;32;20177;-62
2022/09/24 06:32:08;;;;;;;1.00;1.00;;;;;;;13.65;86.50;95049.19;4384257;32;20195;-63
2022/09/24 06:34:35;;;;;;;0.80;0.80;;;;;;;13.57;86.73;95046.56;4386189;32;20184;-62
2022/09/24 06:37:02;;;;;;;1.47;1.37;;;;;;;13.72;86.22;95052.13;4406974;32;20196;-62
2022/09/24 06:39:33;;;;;;;4.00;1.30;;;;;;;13.76;86.46;95053.06;4382861;32;20195;-62
2022/09/24 06:41:59;;;;;;;1.03;1.03;;;;;;;13.65;86.22;95049.19;4409860;32;20310;-63
2022/09/24 06:44:26;;;;;;;0.90;0.90;;;;;;;13.70;86.83;95046.37;4391540;32;20235;-63
2022/09/24 06:46:53;;;;;;;1.50;1.40;;;;;;;13.81;87.02;95046.78;4383874;32;20231;-63
2022/09/24 06:49:19;;;;;;;0.67;0.67;;;;;;;13.83;86.55;95049.13;4393184;32;20187;-63
2022/09/24 06:51:45;;;;;;;1.70;1.60;;;;;;;13.81;86.65;95060.13;4400879;32;20233;-63
2022/09/24 06:54:12;;;;;;;0.77;0.77;;;;;;;13.80;86.71;95057.75;4386754;32;20192;-62
2022/09/24 06:56:42;;;;;;;1.33;1.27;;;;;;;13.83;86.46;95059.81;4382838;32;20249;-63
2022/09/24 06:59:09;;;;;;;1.57;1.50;;;;;;;13.94;86.83;95053.78;4404964;32;20188;-62
2022/09/24 07:01:39;;;;;;;1.73;1.63;;;;;;;14.05;85.72;95055.00;4367796;32;23309;-62
2022/09/24 07:04:06;;;;;;;0.83;0.83;;;;;;;14.07;86.28;95058.12;4377457;32;20279;-63
2022/09/24 07:09:18;;;;;;;1.67;1.27;;;;;;;14.18;85.90;95063.09;4371669;32;20286;-63
2022/09/24 07:11:46;;;;;;;1.37;1.37;;;;;;;14.15;86.95;95061.84;4364523;32;20206;-68
2022/09/24 07:14:13;;;;;;;1.53;1.43;;;;;;;14.15;86.22;95064.50;4392812;32;20188;-65
2022/09/24 07:16:39;;;;;;;1.00;1.00;;;;;;;14.08;85.19;95070.37;4406610;32;20226;-62
2022/09/24 07:19:07;;;;;;;1.40;1.30;;;;;;;14.12;85.35;95062.50;4400929;32;20234;-63
2022/09/24 07:21:34;;;;;;;0.87;0.87;;;;;;;14.14;86.02;95064.81;4400227;32;20310;-63
2022/09/24 07:24:00;;;;;;;1.77;1.53;;;;;;;14.10;84.33;95067.38;4403665;32;20261;-63
2022/09/24 07:26:28;;;;;;;1.00;1.00;;;;;;;14.14;84.99;95073.59;4406888;32;20196;-62
2022/09/24 07:28:55;;;;;;;0.80;0.80;;;;;;;14.13;85.40;95074.75;4383617;32;20192;-62
2022/09/24 07:31:20;;;;;;;0.50;0.50;;;;;;;13.90;85.39;95078.75;4408428;32;20269;-63
2022/09/24 07:33:45;;;;;;;0.73;0.73;;;;;;;13.88;84.89;95073.75;4405056;32;20213;-63
2022/09/24 07:36:10;;;;;;;1.00;1.00;;;;;;;13.84;85.12;95080.03;4389644;32;20266;-62
2022/09/24 07:38:37;;;;;;;0.87;0.87;;;;;;;13.94;85.37;95082.31;4401955;32;20320;-63
2022/09/24 07:41:06;;;;;;;1.43;1.27;;;;;;;14.00;84.92;95091.72;4396896;32;20210;-62
2022/09/24 07:43:33;;;;;;;1.03;1.03;;;;;;;14.03;85.42;95086.53;4381753;32;20231;-63
2022/09/24 07:45:58;;;;;;;1.90;1.30;;;;;;;14.16;84.76;95090.09;4389652;32;20263;-63
2022/09/24 07:48:27;;;;;;;0.70;0.70;;;;;;;14.15;85.14;95088.50;4357569;32;20215;-63
2022/09/24 07:50:54;;;;;;;1.33;1.23;;;;;;;14.09;85.42;95084.47;4399338;32;20249;-62
2022/09/24 07:53:22;;;;;;;1.87;1.77;;;;;;;14.08;85.50;95096.25;4399824;32;20200;-62
2022/09/24 07:55:51;;;;;;;0.80;0.80;;;;;;;14.09;85.17;95095.16;4373985;32;20189;-62
2022/09/24 07:58:19;;;;;;;1.20;1.20;;;;;;;14.11;85.95;95095.62;4393594;32;20180;-63
2022/09/24 08:00:44;;;;;;;1.63;1.53;;;;;;;14.19;86.65;95105.44;4390561;32;20201;-63
2022/09/24 08:03:13;;;;;;;1.60;1.50;;;;;;;14.09;87.79;95105.81;4406252;32;20180;-63
2022/09/24 08:05:45;;;;;;;2.23;2.13;;;;;;;14.04;88.81;95109.44;4394818;32;20189;-63
2022/09/24 08:08:15;;;;;;;1.23;1.23;;;;;;;14.10;89.28;95107.37;4384006;32;20200;-63
2022/09/24 08:10:42;;;;;;;1.23;1.23;;;;;;;14.09;89.59;95109.28;4367653;32;20192;-63
2022/09/24 08:13:09;;;;;;;1.60;1.40;;;;;;;14.06;90.64;95115.25;4351119;32;20206;-62
2022/09/24 08:15:36;;;;;;;1.53;1.43;;;;;;;14.08;90.82;95114.94;4385766;32;20184;-62
2022/09/24 08:18:04;;;;;;;1.17;1.17;;;;;;;14.17;90.91;95115.66;4402275;32;20232;-62
2022/09/24 08:20:33;;;;;;;0.83;0.83;;;;;;;14.04;91.38;95116.66;4376755;32;20237;-63
2022/09/24 08:23:09;;;;;;;0.90;0.90;;;;;;;14.05;91.24;95118.22;4390108;32;20200;-63
2022/09/24 08:25:36;;;;;;;1.00;1.00;;;;;;;14.10;90.93;95112.72;4377234;32;20260;-62
2022/09/24 08:28:06;;;;;;;0.83;0.83;;;;;;;14.17;90.66;95105.00;4373722;32;20263;-63
2022/09/24 08:30:34;;;;;;;5.80;1.00;;;;;;;14.19;91.10;95105.44;4374551;32;20231;-62
2022/09/24 08:33:06;;;;;;;0.70;0.70;;;;;;;14.22;90.85;95115.47;4399481;32;20250;-62
2022/09/24 08:35:33;;;;;;;1.40;1.30;;;;;;;14.26;90.44;95115.63;4396801;32;20188;-63
2022/09/24 08:38:02;;;;;;;1.13;1.13;;;;;;;14.27;90.45;95112.66;4376453;32;20188;-63
2022/09/24 08:40:53;;;;;;;1.43;1.33;;;;;;;14.34;89.87;95120.91;4382659;32;20248;-63
2022/09/24 08:43:41;;;;;;;1.07;1.07;;;;;;;14.30;90.42;95119.22;4395336;32;20251;-63
2022/09/24 08:49:15;;;;;;;1.07;1.07;;;;;;;14.22;91.33;95118.16;4401162;32;20299;-63
2022/09/24 08:51:56;;;;;;;0.93;0.90;;;;;;;14.27;90.99;95109.97;4386214;32;20242;-63
2022/09/24 08:54:27;;;;;;;1.73;1.33;;;;;;;14.28;91.14;95116.88;4404224;32;20231;-63
2022/09/24 08:56:56;;;;;;;2.47;1.53;;;;;;;14.32;90.65;95112.47;4362115;32;20188;-63
2022/09/24 08:59:36;;;;;;;0.70;0.70;;;;;;;14.32;92.09;95120.47;4365347;32;20254;-63
2022/09/24 09:02:23;;;;;;;0.80;0.80;;;;;;;14.36;92.35;95126.72;4379028;32;20231;-63
2022/09/24 09:05:38;;;;;;;0.90;0.90;;;;;;;14.36;92.99;95131.25;4376068;32;20262;-64
2022/09/24 09:08:08;;;;;;;0.80;0.80;;;;;;;14.38;93.84;95131.72;4351618;32;20281;-63
2022/09/24 09:10:42;;;;;;;2.13;1.27;;;;;;;14.37;94.43;95133.63;4361529;32;20301;-63
2022/09/24 09:13:28;;;;;;;2.27;2.17;;;;;;;14.53;94.57;95144.59;4406913;32;20196;-63
2022/09/24 09:16:32;;;;;;;1.00;1.00;;;;;;;14.48;95.14;95142.09;4375196;32;20258;-63
2022/09/24 09:19:05;;;;;;;1.53;1.53;;;;;;;14.48;94.64;95144.75;4392569;32;20220;-63
2022/09/24 09:21:40;;;;;;;1.80;1.40;;;;;;;14.66;95.27;95142.78;4397456;32;20180;-63
2022/09/24 09:24:15;;;;;;;1.93;1.83;;;;;;;14.76;94.49;95145.06;4388716;32;20171;-63
2022/09/24 09:26:47;;;;;;;2.20;2.10;;;;;;;14.73;94.76;95145.72;4406764;32;20245;-63
2022/09/24 09:29:19;;;;;;;1.50;1.40;;;;;;;14.79;94.35;95144.41;4353684;32;20213;-63
2022/09/24 09:32:04;;;;;;;6.67;1.87;;;;;;;14.84;94.46;95148.78;4362554;32;20244;-63
2022/09/24 09:35:10;;;;;;;0.80;0.80;;;;;;;14.96;93.43;95141.66;4382284;32;20222;-63
2022/09/24 09:37:55;;;;;;;1.67;1.60;;;;;;;14.92;92.41;95140.72;4324051;32;20292;-63
2022/09/24 09:41:02;;;;;;;1.17;1.03;;;;;;;15.03;92.15;95133.09;4381591;32;20200;-63
2022/09/24 09:43:29;;;;;;;1.20;1.17;;;;;;;15.10;91.31;95136.03;4383988;32;20187;-63
2022/09/24 09:46:21;;;;;;;0.60;0.60;;;;;;;15.08;92.00;95147.06;4399454;32;20187;-63
2022/09/24 09:48:53;;;;;;;1.43;1.33;;;;;;;15.00;91.11;95144.44;4383216;32;20241;-63
2022/09/24 09:51:23;;;;;;;1.20;1.20;;;;;;;15.10;91.02;95144.06;4397513;32;20180;-62
2022/09/24 09:53:58;;;;;;;0.63;0.63;;;;;;;15.13;90.39;95146.09;4381158;32;20184;-63
2022/09/24 09:56:30;;;;;;;1.27;1.13;;;;;;;15.10;91.14;95147.50;4395328;32;20226;-63
2022/09/24 09:59:10;;;;;;;0.90;0.90;;;;;;;15.08;90.93;95143.59;4371579;32;20219;-63
2022/09/24 10:01:44;;;;;;;1.77;1.67;;;;;;;15.09;91.37;95148.63;4394606;32;20185;-63
2022/09/24 10:04:40;;;;;;;1.10;1.03;;;;;;;15.05;91.73;95141.56;4410718;32;20263;-63
2022/09/24 10:07:16;;;;;;;3.60;1.00;;;;;;;15.22;91.42;95140.66;4389868;32;20195;-63
2022/09/24 10:09:46;;;;;;;0.90;0.90;;;;;;;15.08;92.29;95147.06;4407013;32;20211;-63
2022/09/24 10:12:13;;;;;;;1.87;1.77;;;;;;;15.09;91.98;95142.50;4371944;32;20213;-63
2022/09/24 10:14:43;;;;;;;0.70;0.70;;;;;;;15.03;92.50;95147.25;4394888;32;20184;-63
2022/09/24 10:17:15;;;;;;;1.20;1.20;;;;;;;14.99;91.80;95150.88;4380327;32;20188;-64
2022/09/24 10:19:46;;;;;;;1.70;1.60;;;;;;;15.00;92.95;95139.88;4385995;32;20191;-64
2022/09/24 10:22:21;;;;;;;0.47;0.47;;;;;;;15.05;93.05;95150.38;4378858;32;20184;-64
2022/09/24 10:24:47;;;;;;;1.03;1.03;;;;;;;15.03;92.61;95149.91;4382611;32;20193;-64
2022/09/24 10:27:35;;;;;;;1.43;1.43;;;;;;;14.92;93.78;95146.06;4379996;32;20199;-64
2022/09/24 10:30:34;;;;;;;1.30;1.30;;;;;;;15.06;93.06;95157.28;4386007;32;20180;-64
2022/09/24 10:33:03;;;;;;;0.93;0.93;;;;;;;15.11;93.31;95151.75;4391332;32;20265;-64
2022/09/24 10:35:37;;;;;;;3.23;1.40;;;;;;;15.02;94.29;95147.56;4392998;32;20190;-64
2022/09/24 10:38:23;;;;;;;1.30;1.30;;;;;;;15.09;94.00;95150.50;4362045;32;20253;-64
2022/09/24 10:40:53;;;;;;;1.10;1.10;;;;;;;15.12;93.97;95156.00;4385058;32;20203;-64
2022/09/24 10:43:21;;;;;;;1.07;1.07;;;;;;;14.91;94.30;95152.53;4408099;32;20191;-64
2022/09/24 10:46:11;;;;;;;1.23;1.23;;;;;;;15.01;93.94;95156.69;4399019;32;20181;-64
2022/09/24 10:48:53;;;;;;;0.90;0.90;;;;;;;14.92;94.82;95145.28;4420374;32;20218;-64
2022/09/24 10:51:41;;;;;;;2.13;1.37;;;;;;;15.08;94.17;95148.94;4386457;32;20208;-64
2022/09/24 10:54:47;;;;;;;1.33;1.33;;;;;;;15.06;94.52;95151.94;4391322;32;20321;-64
2022/09/24 10:57:42;;;;;;;0.90;0.90;;;;;;;14.95;95.49;95153.44;4339276;32;20184;-64
2022/09/24 11:00:31;;;;;;;1.73;1.63;;;;;;;14.96;95.84;95151.56;4369187;32;20188;-64
2022/09/24 11:03:41;;;;;;;0.90;0.90;;;;;;;15.11;94.90;95151.75;4389434;32;20202;-64
2022/09/24 11:06:20;;;;;;;1.20;1.20;;;;;;;15.10;95.09;95144.84;4393860;32;20211;-64
2022/09/24 11:09:01;;;;;;;1.70;1.60;;;;;;;15.10;94.98;95152.06;4367972;32;20189;-64
2022/09/24 11:11:46;;;;;;;1.00;1.00;;;;;;;15.03;95.87;95155.25;4381883;32;20240;-65
2022/09/24 11:14:40;;;;;;;1.13;1.13;;;;;;;15.09;95.43;95153.97;4368424;32;20257;-64
2022/09/24 11:17:32;;;;;;;0.93;0.93;;;;;;;15.16;95.01;95155.34;4375223;32;20279;-64
2022/09/24 11:20:10;;;;;;;0.67;0.67;;;;;;;15.02;95.57;95163.59;4398072;32;20202;-64
2022/09/24 11:23:18;;;;;;;1.20;1.20;;;;;;;15.05;95.57;95158.38;4392223;32;20213;-64
2022/09/24 11:26:22;;;;;;;1.63;1.53;;;;;;;15.15;94.85;95156.44;4341144;32;20188;-64
2022/09/24 11:29:27;;;;;;;1.13;1.13;;;;;;;15.03;95.51;95151.78;4381592;32;20189;-65
2022/09/24 11:32:19;;;;;;;2.63;1.23;;;;;;;15.13;95.79;95156.78;4401500;32;20551;-64
2022/09/24 11:35:02;;;;;;;1.00;1.00;;;;;;;15.18;95.74;95145.06;4395169;32;20251;-65
2022/09/24 11:37:45;;;;;;;0.90;0.90;;;;;;;15.18;96.39;95145.06;4386949;32;20195;-64
2022/09/24 11:40:35;;;;;;;1.13;1.13;;;;;;;15.11;95.99;95135.72;4403579;32;20177;-64
2022/09/24 11:43:53;;;;;;;1.47;1.37;;;;;;;15.17;95.72;95135.53;4382088;32;20188;-64
2022/09/24 11:46:37;;;;;;;1.30;1.20;;;;;;;15.25;95.37;95140.00;4398607;32;20188;-64
2022/09/24 11:49:23;;;;;;;2.20;2.10;;;;;;;15.37;94.95;95137.41;4395392;32;20232;-64
2022/09/24 11:52:11;;;;;;;1.10;1.10;;;;;;;15.34;94.88;95130.81;4408344;32;20234;-64
2022/09/24 11:54:59;;;;;;;1.23;1.23;;;;;;;15.30;95.14;95126.44;4401868;32;20254;-64
2022/09/24 11:57:32;;;;;;;6.17;5.57;;;;;;;15.20;94.85;95132.19;4394874;32;20195;-64
2022/09/24 12:00:09;;;;;;;2.37;2.20;;;;;;;15.36;94.41;95133.16;4394405;32;20188;-64
2022/09/24 12:02:50;;;;;;;2.50;2.03;;;;;;;15.18;94.85;95132.50;4394989;32;20271;-64
2022/09/24 12:05:37;;;;;;;1.13;1.13;;;;;;;15.21;95.25;95131.84;4374943;32;20188;-64
2022/09/24 12:08:40;;;;;;;5.70;2.47;;;;;;;15.28;94.86;95134.00;4358768;32;20227;-64
2022/09/24 12:11:32;;;;;;;1.20;1.17;;;;;;;15.21;94.56;95136.41;4372316;32;20199;-64
2022/09/24 12:14:11;;;;;;;1.27;1.27;;;;;;;15.10;95.75;95134.16;4388989;32;20200;-64
2022/09/24 12:16:39;;;;;;;1.23;1.23;;;;;;;15.18;95.21;95126.38;4378031;32;20295;-64